Terminal Aerodrome Forecast
Issued by NWS

Current Version | Previous Version | Text Only | Print | Product List | Glossary Off
Versions: 1 2 3 4 5 6 7 8 9 10 11 12 13 14 15 16 17 18 19 20 21

000
FTUS41 KRNK 181123
TAFLWB
TAF
KLWB 181123Z 1812/1912 00000KT P6SM SCT200
     FM181600 26008KT P6SM BKN200
     FM182300 27004KT P6SM OVC100
     FM190300 29008KT P6SM OVC040
     FM190700 28007KT 4SM -SHRA BR OVC015=

USA.gov is the U.S. government's official web portal to all federal, state and local government web resources and services.